Time;durP1;ratioP1;P1;durP2;ratioP2;P2;SDS_P1;SDS_P2;PMS_P1;PMS_P2;Temp;Humidity;BMP_temperature;BMP_pressure;BME280_temperature;BME280_humidity;BME280_pressure;Samples;Min_cycle;Max_cycle;Signal;HPM_P1;HPM_P2
2023/05/18 00:01:54;;;;;;;8.55;1.60;;;;;;;;;;5055224;28;20039;-78
2023/05/18 00:04:22;;;;;;;9.45;2.05;;;;;;;;;;5053819;28;20036;-79
2023/05/18 00:06:55;;;;;;;10.77;2.17;;;;;;;;;;5053103;28;20131;-78
2023/05/18 00:09:23;;;;;;;10.07;2.15;;;;;;;;;;5068705;28;20110;-79
2023/05/18 00:11:50;;;;;;;8.30;2.15;;;;;;;;;;5057439;28;20562;-78
2023/05/18 00:14:16;;;;;;;11.60;2.42;;;;;;;;;;5055187;28;20779;-78
2023/05/18 00:16:42;;;;;;;7.20;2.42;;;;;;;;;;5055773;28;20043;-78
2023/05/18 00:19:08;;;;;;;15.77;2.58;;;;;;;;;;5053337;28;21761;-79
2023/05/18 00:21:34;;;;;;;15.02;2.50;;;;;;;;;;5054878;28;20068;-78
2023/05/18 00:24:01;;;;;;;9.13;1.80;;;;;;;;;;5054232;28;20060;-79
2023/05/18 00:26:28;;;;;;;8.90;2.40;;;;;;;;;;5049199;28;20227;-78
2023/05/18 00:28:54;;;;;;;8.45;2.20;;;;;;;;;;5053228;28;20048;-79
2023/05/18 00:31:20;;;;;;;12.25;2.00;;;;;;;;;;5049810;28;20040;-79
2023/05/18 00:33:46;;;;;;;12.07;2.15;;;;;;;;;;5031697;28;20037;-78
2023/05/18 00:36:12;;;;;;;6.47;2.17;;;;;;;;;;5033211;28;20788;-79
2023/05/18 00:38:38;;;;;;;10.80;2.30;;;;;;;;;;5031677;28;20041;-78
2023/05/18 00:41:04;;;;;;;6.68;2.25;;;;;;;;;;5052197;28;20113;-78
2023/05/18 00:43:30;;;;;;;5.65;2.05;;;;;;;;;;5049750;28;20052;-79
2023/05/18 00:45:56;;;;;;;10.02;2.65;;;;;;;;;;5067513;28;20093;-79
2023/05/18 00:48:22;;;;;;;6.97;2.03;;;;;;;;;;5049371;28;20055;-79
2023/05/18 00:50:49;;;;;;;16.70;2.67;;;;;;;;;;5036791;28;20131;-78
2023/05/18 00:53:15;;;;;;;11.10;2.13;;;;;;;;;;5052208;28;20066;-79
2023/05/18 00:55:42;;;;;;;9.77;2.22;;;;;;;;;;5047914;28;20091;-78
2023/05/18 00:58:08;;;;;;;9.73;2.08;;;;;;;;;;5049147;28;20049;-79
2023/05/18 01:00:36;;;;;;;6.53;2.10;;;;;;;;;;5064901;28;20127;-79
2023/05/18 01:03:03;;;;;;;7.97;1.90;;;;;;;;;;5047108;28;20052;-78
2023/05/18 01:05:29;;;;;;;10.70;1.83;;;;;;;;;;5050887;28;20495;-78
2023/05/18 01:07:55;;;;;;;7.75;2.25;;;;;;;;;;5049430;28;20101;-78
2023/05/18 01:10:21;;;;;;;7.95;1.95;;;;;;;;;;5044481;28;20090;-78
2023/05/18 01:12:53;;;;;;;8.02;1.85;;;;;;;;;;5050357;28;20453;-78
2023/05/18 01:15:21;;;;;;;10.85;3.08;;;;;;;;;;5053438;28;20054;-78
2023/05/18 01:18:03;;;;;;;6.13;2.10;;;;;;;;;;5051530;28;20153;-78
2023/05/18 01:20:46;;;;;;;7.28;1.73;;;;;;;;;;5048652;28;20075;-78
2023/05/18 01:23:32;;;;;;;21.83;4.25;;;;;;;;;;5050911;28;20114;-79
2023/05/18 01:25:58;;;;;;;7.35;2.10;;;;;;;;;;5051447;28;20059;-78
2023/05/18 01:28:28;;;;;;;6.90;1.88;;;;;;;;;;5052095;28;20446;-78
2023/05/18 01:30:55;;;;;;;6.03;2.03;;;;;;;;;;5033455;28;20047;-78
2023/05/18 01:33:21;;;;;;;9.38;2.63;;;;;;;;;;5054324;28;20784;-78
2023/05/18 01:35:47;;;;;;;6.70;2.03;;;;;;;;;;5052784;28;20044;-79
2023/05/18 01:38:18;;;;;;;6.55;1.95;;;;;;;;;;5037132;28;20783;-78
2023/05/18 01:40:48;;;;;;;9.02;2.03;;;;;;;;;;5050012;28;21193;-78
2023/05/18 01:43:18;;;;;;;5.30;1.70;;;;;;;;;;5052420;28;20101;-78
2023/05/18 01:45:46;;;;;;;7.00;2.10;;;;;;;;;;5045091;28;20611;-78
2023/05/18 01:48:15;;;;;;;8.40;1.83;;;;;;;;;;5049682;28;20044;-78
2023/05/18 01:50:45;;;;;;;6.65;1.67;;;;;;;;;;5051422;28;20615;-78
2023/05/18 01:53:19;;;;;;;7.45;1.45;;;;;;;;;;5050986;28;20060;-78
2023/05/18 01:55:48;;;;;;;8.93;1.92;;;;;;;;;;5050858;28;20683;-78
2023/05/18 01:58:15;;;;;;;8.35;1.88;;;;;;;;;;5033817;28;20118;-78
2023/05/18 02:00:41;;;;;;;8.80;1.75;;;;;;;;;;5064828;28;20535;-78
2023/05/18 02:03:07;;;;;;;5.93;1.80;;;;;;;;;;5038914;28;21776;-77
2023/05/18 02:05:33;;;;;;;5.38;1.70;;;;;;;;;;5048431;28;20086;-78
2023/05/18 02:07:59;;;;;;;6.72;1.90;;;;;;;;;;5034120;28;20133;-78
2023/05/18 02:10:25;;;;;;;9.65;1.90;;;;;;;;;;5050570;28;20348;-78
2023/05/18 02:12:52;;;;;;;10.02;2.47;;;;;;;;;;5041712;28;20041;-78
2023/05/18 02:15:19;;;;;;;8.25;2.53;;;;;;;;;;5033648;28;20551;-78
2023/05/18 02:17:45;;;;;;;9.38;2.35;;;;;;;;;;5066230;28;20515;-78
2023/05/18 02:20:12;;;;;;;7.18;1.77;;;;;;;;;;5047586;28;20646;-78
2023/05/18 02:22:38;;;;;;;8.32;1.75;;;;;;;;;;5047181;28;20123;-78
2023/05/18 02:25:06;;;;;;;7.57;2.00;;;;;;;;;;5050167;28;20028;-78
2023/05/18 02:27:33;;;;;;;10.95;2.30;;;;;;;;;;5047803;28;20665;-78
2023/05/18 02:30:02;;;;;;;8.35;1.95;;;;;;;;;;5047032;28;20170;-78
2023/05/18 02:32:28;;;;;;;10.82;2.28;;;;;;;;;;5049563;28;20756;-78
2023/05/18 02:34:54;;;;;;;7.10;2.10;;;;;;;;;;5048054;28;20048;-78
2023/05/18 02:37:21;;;;;;;8.27;2.00;;;;;;;;;;5049280;28;20044;-78
2023/05/18 02:39:48;;;;;;;19.67;2.55;;;;;;;;;;5031072;28;20187;-78
2023/05/18 02:42:14;;;;;;;6.65;2.05;;;;;;;;;;5047602;28;20442;-79
2023/05/18 02:44:41;;;;;;;10.38;2.53;;;;;;;;;;5051383;28;20037;-78
2023/05/18 02:47:07;;;;;;;8.07;1.70;;;;;;;;;;5031950;28;20040;-78
2023/05/18 02:49:33;;;;;;;10.68;1.85;;;;;;;;;;5031507;28;20436;-79
2023/05/18 02:51:59;;;;;;;9.25;1.85;;;;;;;;;;5046381;28;20175;-79
2023/05/18 02:54:25;;;;;;;8.02;1.90;;;;;;;;;;5048744;28;20040;-79
2023/05/18 02:56:55;;;;;;;5.82;1.75;;;;;;;;;;5050525;28;20269;-78
2023/05/18 02:59:21;;;;;;;8.65;2.47;;;;;;;;;;5053772;28;20055;-78
2023/05/18 03:01:47;;;;;;;6.75;1.95;;;;;;;;;;5046873;28;20121;-79
2023/05/18 03:04:15;;;;;;;7.28;1.83;;;;;;;;;;5036283;28;20045;-78
2023/05/18 03:06:41;;;;;;;7.22;1.55;;;;;;;;;;5029591;28;20044;-78
2023/05/18 03:09:08;;;;;;;7.05;1.75;;;;;;;;;;5051537;28;20422;-78
2023/05/18 03:11:34;;;;;;;9.30;2.72;;;;;;;;;;5014824;28;20171;-78
2023/05/18 03:14:00;;;;;;;10.98;2.20;;;;;;;;;;5054999;28;20044;-78
2023/05/18 03:16:27;;;;;;;6.57;2.10;;;;;;;;;;5042300;28;20044;-78
2023/05/18 03:18:53;;;;;;;6.45;2.65;;;;;;;;;;5050233;28;20503;-78
2023/05/18 03:21:20;;;;;;;9.38;2.00;;;;;;;;;;5052001;28;20039;-78
2023/05/18 03:23:46;;;;;;;13.50;2.38;;;;;;;;;;5051113;28;20412;-78
2023/05/18 03:26:13;;;;;;;6.72;2.25;;;;;;;;;;5067268;28;20721;-78
2023/05/18 03:28:39;;;;;;;10.65;2.10;;;;;;;;;;5055950;28;20040;-78
2023/05/18 03:31:05;;;;;;;8.95;2.65;;;;;;;;;;5051509;28;20527;-78
2023/05/18 03:33:31;;;;;;;12.43;2.10;;;;;;;;;;5051309;28;20135;-78
2023/05/18 03:36:01;;;;;;;11.88;2.15;;;;;;;;;;5067825;28;20059;-78
2023/05/18 03:38:27;;;;;;;6.68;1.88;;;;;;;;;;5059407;28;20500;-78
2023/05/18 03:40:54;;;;;;;8.48;2.05;;;;;;;;;;5053084;28;21227;-78
2023/05/18 03:43:20;;;;;;;11.05;2.00;;;;;;;;;;5055809;28;20416;-78
2023/05/18 03:45:46;;;;;;;11.43;2.15;;;;;;;;;;5038312;28;20048;-78
2023/05/18 03:48:12;;;;;;;13.70;2.35;;;;;;;;;;5037959;28;20048;-79
2023/05/18 03:50:38;;;;;;;9.68;2.85;;;;;;;;;;5055655;28;20051;-78
2023/05/18 03:53:04;;;;;;;15.30;2.25;;;;;;;;;;5056620;28;20047;-78
2023/05/18 03:55:31;;;;;;;7.97;2.30;;;;;;;;;;5057842;28;20071;-78
2023/05/18 03:57:58;;;;;;;8.70;2.10;;;;;;;;;;5057426;28;20378;-78
2023/05/18 04:00:24;;;;;;;7.00;2.58;;;;;;;;;;5039476;28;20063;-79
2023/05/18 04:02:50;;;;;;;11.65;2.83;;;;;;;;;;5056814;28;20037;-78
2023/05/18 04:05:17;;;;;;;9.45;2.50;;;;;;;;;;5052597;28;20113;-78
2023/05/18 04:07:45;;;;;;;10.10;2.80;;;;;;;;;;5053607;28;20594;-78
2023/05/18 04:10:11;;;;;;;8.95;2.58;;;;;;;;;;5034502;28;21447;-78
2023/05/18 04:12:37;;;;;;;10.75;2.20;;;;;;;;;;5068774;28;20137;-79
2023/05/18 04:15:03;;;;;;;7.85;2.33;;;;;;;;;;5055160;28;20059;-78
2023/05/18 04:17:30;;;;;;;9.65;2.38;;;;;;;;;;5038053;28;20039;-78
2023/05/18 04:19:56;;;;;;;9.63;2.35;;;;;;;;;;5051168;28;20473;-78
2023/05/18 04:22:22;;;;;;;12.30;1.98;;;;;;;;;;5047858;28;20182;-78
2023/05/18 04:24:49;;;;;;;11.57;2.15;;;;;;;;;;5052563;28;20040;-78
2023/05/18 04:27:15;;;;;;;8.50;2.05;;;;;;;;;;5055146;28;20052;-78
2023/05/18 04:29:42;;;;;;;23.08;4.38;;;;;;;;;;5052921;28;20799;-78
2023/05/18 04:32:09;;;;;;;7.18;2.25;;;;;;;;;;5056295;28;20061;-79
2023/05/18 04:34:36;;;;;;;11.00;2.58;;;;;;;;;;5052553;28;20512;-78
2023/05/18 04:37:05;;;;;;;8.48;2.15;;;;;;;;;;5047503;28;20067;-78
2023/05/18 04:39:33;;;;;;;12.48;2.53;;;;;;;;;;5052145;28;20090;-78
2023/05/18 04:42:03;;;;;;;9.93;1.90;;;;;;;;;;5050825;28;20124;-78
2023/05/18 04:44:33;;;;;;;7.47;2.50;;;;;;;;;;5048868;28;20075;-78
2023/05/18 04:46:59;;;;;;;12.02;3.00;;;;;;;;;;5051677;28;20051;-78
2023/05/18 04:49:27;;;;;;;9.05;2.28;;;;;;;;;;5053375;28;20044;-78
2023/05/18 04:51:58;;;;;;;7.53;2.28;;;;;;;;;;5052081;28;20056;-78
2023/05/18 04:54:31;;;;;;;10.63;2.33;;;;;;;;;;5035976;28;21902;-78
2023/05/18 04:56:58;;;;;;;9.25;2.50;;;;;;;;;;5034721;28;20143;-78
2023/05/18 04:59:25;;;;;;;6.43;1.88;;;;;;;;;;5048944;28;20408;-78
2023/05/18 05:01:54;;;;;;;5.57;1.67;;;;;;;;;;5051076;28;21614;-78
2023/05/18 05:04:22;;;;;;;9.25;2.40;;;;;;;;;;5037950;28;20039;-78
2023/05/18 05:06:48;;;;;;;7.95;2.00;;;;;;;;;;5050361;28;20048;-78
2023/05/18 05:09:14;;;;;;;8.27;2.00;;;;;;;;;;5054039;28;21477;-78
2023/05/18 05:11:41;;;;;;;13.85;2.45;;;;;;;;;;5052395;28;20125;-79
2023/05/18 05:14:07;;;;;;;7.18;1.83;;;;;;;;;;5052603;28;20044;-78
2023/05/18 05:16:34;;;;;;;6.07;1.92;;;;;;;;;;5051864;28;20470;-78
2023/05/18 05:19:00;;;;;;;12.57;2.28;;;;;;;;;;5052577;28;20040;-78
2023/05/18 05:21:26;;;;;;;6.95;1.80;;;;;;;;;;5034683;28;20060;-78
2023/05/18 05:23:52;;;;;;;11.70;2.10;;;;;;;;;;5048526;28;20049;-78
2023/05/18 05:26:18;;;;;;;12.55;2.38;;;;;;;;;;5035648;28;20075;-78
2023/05/18 05:28:44;;;;;;;5.88;1.98;;;;;;;;;;5052124;28;20103;-78
2023/05/18 05:31:10;;;;;;;8.98;2.75;;;;;;;;;;5051437;28;20480;-78
2023/05/18 05:33:36;;;;;;;5.25;2.10;;;;;;;;;;5050091;28;20782;-78
2023/05/18 05:36:07;;;;;;;10.02;2.00;;;;;;;;;;5047299;28;20275;-78
2023/05/18 05:38:33;;;;;;;10.05;2.03;;;;;;;;;;5049557;28;20941;-77
2023/05/18 05:40:59;;;;;;;9.27;2.40;;;;;;;;;;5049799;28;20051;-78
2023/05/18 05:43:25;;;;;;;8.65;2.08;;;;;;;;;;5050262;28;21803;-78
2023/05/18 05:45:51;;;;;;;8.70;2.33;;;;;;;;;;5051925;28;20044;-78
2023/05/18 05:48:17;;;;;;;5.63;2.33;;;;;;;;;;5049806;28;20112;-78
2023/05/18 05:50:43;;;;;;;10.63;2.58;;;;;;;;;;5048083;28;20727;-78
2023/05/18 05:53:10;;;;;;;9.48;2.05;;;;;;;;;;5049926;28;20557;-77
2023/05/18 05:55:40;;;;;;;8.25;2.38;;;;;;;;;;5049571;28;20447;-77
2023/05/18 05:58:06;;;;;;;9.77;2.10;;;;;;;;;;5034743;28;20049;-77
2023/05/18 06:00:32;;;;;;;6.45;2.13;;;;;;;;;;5051166;28;20419;-77
2023/05/18 06:02:59;;;;;;;9.57;2.45;;;;;;;;;;5039416;28;20303;-78
2023/05/18 06:05:25;;;;;;;11.20;2.40;;;;;;;;;;5046451;28;20044;-78
2023/05/18 06:07:51;;;;;;;9.82;1.98;;;;;;;;;;5048565;28;20212;-77
2023/05/18 06:10:17;;;;;;;8.23;2.10;;;;;;;;;;5032952;28;20126;-78
2023/05/18 06:12:43;;;;;;;5.63;2.08;;;;;;;;;;5045705;28;20051;-79
2023/05/18 06:15:10;;;;;;;5.97;2.08;;;;;;;;;;5050732;28;20043;-77
2023/05/18 06:17:37;;;;;;;8.90;2.40;;;;;;;;;;5047736;28;20097;-77
2023/05/18 06:20:05;;;;;;;10.05;2.45;;;;;;;;;;5047950;28;20075;-77
2023/05/18 06:22:32;;;;;;;6.82;2.30;;;;;;;;;;5049554;28;20491;-76
2023/05/18 06:24:58;;;;;;;11.32;2.50;;;;;;;;;;5049762;28;21304;-78
2023/05/18 06:27:24;;;;;;;9.38;2.20;;;;;;;;;;5048171;28;20156;-77
2023/05/18 06:29:51;;;;;;;6.30;2.22;;;;;;;;;;5050091;28;20772;-79
2023/05/18 06:32:17;;;;;;;9.57;2.28;;;;;;;;;;5049062;28;20562;-78
2023/05/18 06:34:46;;;;;;;9.15;1.95;;;;;;;;;;5049228;28;20200;-78
2023/05/18 06:37:13;;;;;;;7.50;1.60;;;;;;;;;;5051091;28;20048;-77
2023/05/18 06:39:39;;;;;;;8.40;2.05;;;;;;;;;;5049837;28;20089;-78
2023/05/18 06:42:05;;;;;;;8.25;2.03;;;;;;;;;;5048515;28;20047;-78
2023/05/18 06:44:31;;;;;;;6.18;1.88;;;;;;;;;;5048820;28;20048;-79
2023/05/18 06:46:57;;;;;;;5.88;1.70;;;;;;;;;;5050529;28;20054;-79
2023/05/18 06:49:24;;;;;;;6.80;1.90;;;;;;;;;;5055450;28;20057;-79
2023/05/18 06:51:50;;;;;;;13.25;1.88;;;;;;;;;;5054356;28;20040;-78
2023/05/18 06:54:16;;;;;;;10.23;2.33;;;;;;;;;;5054165;28;20052;-79
2023/05/18 06:56:42;;;;;;;7.28;1.85;;;;;;;;;;5040075;28;20044;-77
2023/05/18 06:59:08;;;;;;;10.80;2.35;;;;;;;;;;5055537;28;20085;-79
2023/05/18 07:01:34;;;;;;;5.25;1.85;;;;;;;;;;5054546;28;20050;-78
2023/05/18 07:04:01;;;;;;;6.68;1.85;;;;;;;;;;5039584;28;20456;-78
2023/05/18 07:06:27;;;;;;;6.95;1.92;;;;;;;;;;5058897;28;20098;-78
2023/05/18 07:08:53;;;;;;;8.57;1.55;;;;;;;;;;5057032;28;20105;-79
2023/05/18 07:11:20;;;;;;;5.70;1.60;;;;;;;;;;5059210;28;20440;-78
2023/05/18 07:13:46;;;;;;;4.93;1.55;;;;;;;;;;5059348;28;20058;-79
2023/05/18 07:16:13;;;;;;;13.05;1.88;;;;;;;;;;5059256;28;20449;-76
2023/05/18 07:18:40;;;;;;;11.07;2.50;;;;;;;;;;5055759;28;20166;-79
2023/05/18 07:21:07;;;;;;;4.53;1.30;;;;;;;;;;5040231;28;20063;-79
2023/05/18 07:23:33;;;;;;;9.00;1.65;;;;;;;;;;5051126;28;20182;-79
2023/05/18 07:25:59;;;;;;;7.95;1.90;;;;;;;;;;5049050;28;20040;-79
2023/05/18 07:28:25;;;;;;;7.88;2.13;;;;;;;;;;5039017;28;20394;-80
2023/05/18 07:30:51;;;;;;;11.13;2.45;;;;;;;;;;5069477;28;20052;-79
2023/05/18 07:33:17;;;;;;;12.05;1.98;;;;;;;;;;5051227;28;20181;-79
2023/05/18 07:35:44;;;;;;;8.93;1.73;;;;;;;;;;5052424;28;20765;-78
2023/05/18 07:38:10;;;;;;;8.80;1.83;;;;;;;;;;5054102;28;20040;-84
2023/05/18 07:40:36;;;;;;;7.72;1.70;;;;;;;;;;5054296;28;20545;-80
2023/05/18 07:43:02;;;;;;;5.97;1.75;;;;;;;;;;5050829;28;20481;-79
2023/05/18 07:45:31;;;;;;;13.20;2.00;;;;;;;;;;5052285;28;20051;-82
2023/05/18 07:47:57;;;;;;;8.05;1.70;;;;;;;;;;5049224;28;20040;-80
2023/05/18 07:50:23;;;;;;;7.30;2.00;;;;;;;;;;5069106;27;20515;-81
2023/05/18 07:52:49;;;;;;;8.27;1.70;;;;;;;;;;5050849;28;20045;-81
2023/05/18 07:55:16;;;;;;;6.32;1.98;;;;;;;;;;5049233;28;20067;-81
2023/05/18 07:57:42;;;;;;;7.10;1.80;;;;;;;;;;5054971;28;20519;-81
2023/05/18 08:00:09;;;;;;;16.17;2.60;;;;;;;;;;5053380;28;20039;-81
2023/05/18 08:02:35;;;;;;;9.52;2.72;;;;;;;;;;5056046;28;20056;-80
2023/05/18 08:05:01;;;;;;;10.35;2.17;;;;;;;;;;5051159;28;20495;-81
2023/05/18 08:07:28;;;;;;;5.75;1.90;;;;;;;;;;5067623;28;20043;-83
2023/05/18 08:09:55;;;;;;;6.93;1.85;;;;;;;;;;5059087;28;20040;-85
2023/05/18 08:12:25;;;;;;;9.68;1.80;;;;;;;;;;5052188;28;20055;-78
2023/05/18 08:14:51;;;;;;;7.32;2.75;;;;;;;;;;5061663;28;20063;-82
2023/05/18 08:17:18;;;;;;;7.13;1.65;;;;;;;;;;5062256;28;20051;-77
2023/05/18 08:19:46;;;;;;;8.07;2.90;;;;;;;;;;5042607;28;20051;-79
2023/05/18 08:22:12;;;;;;;8.77;2.40;;;;;;;;;;5070848;28;20036;-85
2023/05/18 08:24:38;;;;;;;9.25;1.90;;;;;;;;;;5079070;28;20048;-85
2023/05/18 08:27:07;;;;;;;6.30;1.80;;;;;;;;;;5068657;28;20040;-86
2023/05/18 08:29:36;;;;;;;8.32;1.60;;;;;;;;;;5057233;28;20048;-86
2023/05/18 08:32:06;;;;;;;5.80;1.83;;;;;;;;;;5058377;28;20376;-86
2023/05/18 08:34:32;;;;;;;12.13;1.90;;;;;;;;;;5059755;28;20040;-85
2023/05/18 08:36:59;;;;;;;7.40;1.60;;;;;;;;;;5063577;28;20051;-85
2023/05/18 08:39:25;;;;;;;8.07;2.13;;;;;;;;;;5060677;28;20454;-86
2023/05/18 08:41:54;;;;;;;8.95;2.05;;;;;;;;;;5076114;27;20123;-84
2023/05/18 08:44:21;;;;;;;12.27;1.73;;;;;;;;;;5058411;28;20067;-88
2023/05/18 08:46:50;;;;;;;5.90;2.58;;;;;;;;;;5060258;28;20050;-87
2023/05/18 08:49:20;;;;;;;7.03;1.70;;;;;;;;;;5055008;28;20066;-86
2023/05/18 08:51:48;;;;;;;9.57;2.00;;;;;;;;;;5058558;28;20063;-85
2023/05/18 08:54:22;;;;;;;6.65;2.10;;;;;;;;;;5058244;28;20112;-85
2023/05/18 08:56:48;;;;;;;9.10;2.03;;;;;;;;;;5058192;28;20306;-85
2023/05/18 08:59:16;;;;;;;7.00;1.95;;;;;;;;;;5057470;28;20748;-83
2023/05/18 09:01:42;;;;;;;7.38;1.75;;;;;;;;;;5063078;28;20060;-85
2023/05/18 09:04:09;;;;;;;4.50;1.67;;;;;;;;;;5058841;28;20043;-84
2023/05/18 09:06:35;;;;;;;6.53;1.73;;;;;;;;;;5061732;28;20055;-84
2023/05/18 09:09:05;;;;;;;9.02;2.30;;;;;;;;;;5058630;28;20066;-84
2023/05/18 09:11:34;;;;;;;5.45;1.92;;;;;;;;;;5056526;28;20203;-85
2023/05/18 09:14:01;;;;;;;8.70;2.35;;;;;;;;;;5062998;28;20480;-84
2023/05/18 09:16:27;;;;;;;5.20;1.55;;;;;;;;;;5052348;28;20044;-85
2023/05/18 09:18:53;;;;;;;7.85;2.65;;;;;;;;;;5055383;28;20048;-83
2023/05/18 09:21:19;;;;;;;12.18;2.40;;;;;;;;;;5037138;28;20877;-84
2023/05/18 09:23:46;;;;;;;11.15;1.90;;;;;;;;;;5056657;28;20045;-82
2023/05/18 09:26:12;;;;;;;6.10;1.90;;;;;;;;;;5058719;28;20272;-84
2023/05/18 09:28:42;;;;;;;12.27;3.35;;;;;;;;;;5056738;28;20040;-83
2023/05/18 09:31:11;;;;;;;10.00;2.50;;;;;;;;;;5057994;28;20039;-84
2023/05/18 09:33:38;;;;;;;10.60;2.28;;;;;;;;;;5059595;28;20389;-83
2023/05/18 09:36:05;;;;;;;14.95;2.15;;;;;;;;;;5057823;28;20036;-83
2023/05/18 09:38:35;;;;;;;8.23;2.00;;;;;;;;;;5057161;28;20060;-82
2023/05/18 09:41:01;;;;;;;11.10;3.20;;;;;;;;;;5056234;28;20052;-83
2023/05/18 09:43:27;;;;;;;8.80;2.08;;;;;;;;;;5059707;28;20044;-83
2023/05/18 09:45:53;;;;;;;7.22;2.08;;;;;;;;;;5061432;28;20033;-83
2023/05/18 09:48:21;;;;;;;7.20;1.95;;;;;;;;;;5056567;28;20109;-83
2023/05/18 09:50:47;;;;;;;8.25;1.90;;;;;;;;;;5041240;28;20044;-84
2023/05/18 09:53:14;;;;;;;11.40;2.22;;;;;;;;;;5059199;28;20433;-84
2023/05/18 09:55:47;;;;;;;6.38;2.00;;;;;;;;;;5057911;28;20190;-84
2023/05/18 09:58:14;;;;;;;7.38;2.80;;;;;;;;;;5058188;28;22432;-84
2023/05/18 10:00:41;;;;;;;9.95;2.00;;;;;;;;;;5056642;28;20044;-84
2023/05/18 10:03:16;;;;;;;8.82;2.33;;;;;;;;;;5057649;28;20126;-84
2023/05/18 10:05:42;;;;;;;5.43;1.85;;;;;;;;;;5057861;28;20554;-84
2023/05/18 10:08:08;;;;;;;7.65;2.65;;;;;;;;;;5056468;28;20048;-83
2023/05/18 10:10:37;;;;;;;11.20;1.60;;;;;;;;;;5074114;28;20113;-83
2023/05/18 10:13:04;;;;;;;5.78;1.75;;;;;;;;;;5058748;28;20406;-84
2023/05/18 10:15:32;;;;;;;5.70;1.98;;;;;;;;;;5056127;28;20067;-83
2023/05/18 10:17:59;;;;;;;13.52;2.85;;;;;;;;;;5056342;28;20454;-83
2023/05/18 10:20:28;;;;;;;9.52;2.28;;;;;;;;;;5039536;28;20071;-84
2023/05/18 10:22:55;;;;;;;7.75;2.38;;;;;;;;;;5062539;28;20408;-83
2023/05/18 10:25:22;;;;;;;7.93;2.03;;;;;;;;;;5060834;28;20655;-83
2023/05/18 10:27:50;;;;;;;6.38;2.20;;;;;;;;;;5063187;28;20174;-83
2023/05/18 10:30:17;;;;;;;10.30;2.58;;;;;;;;;;5065050;28;20047;-83
2023/05/18 10:32:44;;;;;;;8.65;1.85;;;;;;;;;;5094062;28;20050;-83
2023/05/18 10:35:12;;;;;;;8.73;2.22;;;;;;;;;;5086492;28;20046;-83
2023/05/18 10:37:41;;;;;;;8.43;2.00;;;;;;;;;;5102782;28;20205;-82
2023/05/18 10:40:07;;;;;;;10.48;2.17;;;;;;;;;;5089441;28;20051;-83
2023/05/18 10:42:34;;;;;;;5.90;2.22;;;;;;;;;;5100767;28;20044;-83
2023/05/18 10:45:01;;;;;;;7.10;2.08;;;;;;;;;;5088094;28;20128;-83
2023/05/18 10:47:27;;;;;;;8.13;2.10;;;;;;;;;;5079893;28;20040;-83
2023/05/18 10:49:54;;;;;;;8.90;2.13;;;;;;;;;;5082358;28;20039;-83
2023/05/18 10:52:21;;;;;;;14.45;2.10;;;;;;;;;;5081610;28;20048;-83
2023/05/18 10:54:47;;;;;;;7.35;1.80;;;;;;;;;;5097083;28;20135;-83
2023/05/18 10:57:15;;;;;;;8.43;1.73;;;;;;;;;;5080706;28;20097;-83
2023/05/18 10:59:43;;;;;;;9.30;2.40;;;;;;;;;;5081588;28;20043;-83
2023/05/18 11:02:10;;;;;;;8.00;1.77;;;;;;;;;;5081576;28;20044;-83
2023/05/18 11:04:39;;;;;;;6.60;1.85;;;;;;;;;;5073594;28;20076;-81
2023/05/18 11:07:09;;;;;;;7.22;2.03;;;;;;;;;;5080972;28;20119;-83
2023/05/18 11:09:35;;;;;;;10.07;1.65;;;;;;;;;;5092267;28;20044;-81
2023/05/18 11:12:02;;;;;;;7.13;1.58;;;;;;;;;;5095788;28;20105;-82
2023/05/18 11:14:31;;;;;;;5.18;1.80;;;;;;;;;;5079806;28;20487;-83
2023/05/18 11:17:16;;;;;;;7.03;1.40;;;;;;;;;;5080320;28;20063;-83
2023/05/18 11:20:03;;;;;;;12.10;2.60;;;;;;;;;;5074266;28;20535;-83
2023/05/18 11:22:46;;;;;;;6.47;2.00;;;;;;;;;;5063662;28;20631;-84
2023/05/18 11:25:24;;;;;;;9.02;2.45;;;;;;;;;;5059830;28;20062;-83
2023/05/18 11:28:01;;;;;;;8.20;2.00;;;;;;;;;;5058136;28;20498;-84
2023/05/18 11:30:43;;;;;;;8.52;1.73;;;;;;;;;;5062454;28;20130;-83
2023/05/18 11:33:10;;;;;;;9.63;2.55;;;;;;;;;;5064862;28;20064;-83
2023/05/18 11:35:54;;;;;;;9.63;1.80;;;;;;;;;;5064419;28;20067;-83
2023/05/18 11:38:21;;;;;;;10.45;2.05;;;;;;;;;;5066155;28;20502;-84
2023/05/18 11:40:48;;;;;;;6.93;1.73;;;;;;;;;;5062103;28;20143;-83
2023/05/18 11:43:19;;;;;;;12.00;2.67;;;;;;;;;;5061803;28;20056;-83
2023/05/18 11:45:56;;;;;;;5.72;1.98;;;;;;;;;;5069017;28;20101;-83
2023/05/18 11:48:23;;;;;;;7.38;1.88;;;;;;;;;;5096043;28;20058;-83
2023/05/18 11:50:52;;;;;;;3.25;1.40;;;;;;;;;;5079194;28;20044;-85
2023/05/18 11:53:18;;;;;;;6.72;2.33;;;;;;;;;;5077259;28;20036;-84
2023/05/18 11:55:45;;;;;;;8.15;2.15;;;;;;;;;;5063620;28;20112;-82
2023/05/18 11:58:17;;;;;;;3.97;1.63;;;;;;;;;;5058859;28;21732;-82
2023/05/18 12:00:45;;;;;;;12.38;1.80;;;;;;;;;;5063625;28;20049;-84
2023/05/18 12:03:12;;;;;;;8.35;1.90;;;;;;;;;;5061820;28;20044;-83
2023/05/18 12:05:40;;;;;;;5.65;1.60;;;;;;;;;;5061675;28;20040;-83
2023/05/18 12:08:08;;;;;;;8.48;1.98;;;;;;;;;;5063250;28;20488;-83
2023/05/18 12:10:38;;;;;;;8.55;1.73;;;;;;;;;;5061532;28;20079;-83
2023/05/18 12:13:05;;;;;;;9.88;2.13;;;;;;;;;;5048056;28;20395;-83
2023/05/18 12:15:31;;;;;;;6.82;1.65;;;;;;;;;;5062362;28;20081;-82
2023/05/18 12:17:58;;;;;;;8.05;2.00;;;;;;;;;;5063294;28;20552;-83
2023/05/18 12:20:25;;;;;;;5.35;1.65;;;;;;;;;;5059378;28;20682;-83
2023/05/18 12:22:52;;;;;;;4.18;1.38;;;;;;;;;;5039702;28;20123;-83
2023/05/18 12:25:25;;;;;;;4.07;1.30;;;;;;;;;;5058467;28;20115;-82
2023/05/18 12:27:52;;;;;;;3.85;1.70;;;;;;;;;;5058560;28;20462;-84
2023/05/18 12:30:19;;;;;;;10.20;1.98;;;;;;;;;;5059914;28;20037;-84
2023/05/18 12:32:47;;;;;;;6.28;1.80;;;;;;;;;;5059001;28;20455;-82
2023/05/18 12:35:13;;;;;;;9.15;2.00;;;;;;;;;;5058333;28;20153;-81
2023/05/18 12:37:43;;;;;;;6.43;2.00;;;;;;;;;;5061823;28;20134;-81
2023/05/18 12:40:09;;;;;;;5.93;1.77;;;;;;;;;;5061464;28;20443;-83
2023/05/18 12:42:38;;;;;;;10.00;1.95;;;;;;;;;;5075687;28;20466;-82
2023/05/18 12:45:10;;;;;;;11.13;2.30;;;;;;;;;;5064056;28;20040;-81
2023/05/18 12:47:41;;;;;;;6.88;2.10;;;;;;;;;;5045118;28;20052;-81
2023/05/18 12:50:17;;;;;;;10.00;1.83;;;;;;;;;;5063997;28;20650;-82
2023/05/18 12:52:47;;;;;;;12.20;1.98;;;;;;;;;;5045445;28;20043;-81
2023/05/18 12:55:20;;;;;;;5.78;1.60;;;;;;;;;;5051605;28;20655;-81
2023/05/18 12:58:07;;;;;;;7.28;2.30;;;;;;;;;;5043190;28;20032;-82
2023/05/18 13:00:34;;;;;;;8.13;2.20;;;;;;;;;;5039091;28;20093;-81
2023/05/18 13:03:06;;;;;;;4.05;1.63;;;;;;;;;;5045382;28;20051;-82
2023/05/18 13:05:32;;;;;;;10.60;1.90;;;;;;;;;;5064167;28;20044;-82
2023/05/18 13:07:59;;;;;;;5.00;1.45;;;;;;;;;;5061561;28;20135;-81
2023/05/18 13:10:29;;;;;;;9.48;2.03;;;;;;;;;;5045990;28;20075;-82
2023/05/18 13:13:00;;;;;;;6.25;1.70;;;;;;;;;;5049747;28;20043;-82
2023/05/18 13:15:26;;;;;;;13.55;2.63;;;;;;;;;;5028276;28;20040;-82
2023/05/18 13:17:57;;;;;;;11.85;2.08;;;;;;;;;;5061011;28;20064;-82
2023/05/18 13:20:23;;;;;;;8.10;2.28;;;;;;;;;;5062812;28;20044;-81
2023/05/18 13:22:50;;;;;;;9.45;2.40;;;;;;;;;;5046051;28;20110;-81
2023/05/18 13:25:16;;;;;;;8.90;1.90;;;;;;;;;;5044079;28;20051;-80
2023/05/18 13:27:44;;;;;;;9.25;2.13;;;;;;;;;;5060290;28;20055;-80
2023/05/18 13:30:11;;;;;;;8.15;2.15;;;;;;;;;;5061507;28;20055;-80
2023/05/18 13:32:37;;;;;;;12.75;1.90;;;;;;;;;;5059451;28;20487;-80
2023/05/18 13:35:04;;;;;;;6.35;1.70;;;;;;;;;;5061537;28;20271;-80
2023/05/18 13:37:30;;;;;;;8.38;1.75;;;;;;;;;;5060086;28;20051;-81
2023/05/18 13:39:56;;;;;;;10.35;2.13;;;;;;;;;;5061686;28;20044;-80
2023/05/18 13:42:23;;;;;;;5.32;2.20;;;;;;;;;;5047183;28;20516;-82
2023/05/18 13:44:49;;;;;;;10.80;2.13;;;;;;;;;;5047487;28;20464;-83
2023/05/18 13:47:15;;;;;;;8.38;1.80;;;;;;;;;;5048215;28;20052;-82
2023/05/18 13:49:41;;;;;;;11.57;1.90;;;;;;;;;;5063776;28;20040;-82
2023/05/18 13:52:07;;;;;;;4.22;1.50;;;;;;;;;;5052091;28;20041;-80
2023/05/18 13:54:33;;;;;;;11.75;2.08;;;;;;;;;;5047037;28;20720;-82
2023/05/18 13:56:59;;;;;;;11.48;2.42;;;;;;;;;;5063806;28;20048;-82
2023/05/18 13:59:26;;;;;;;9.25;2.13;;;;;;;;;;5066708;28;20063;-81
2023/05/18 14:01:52;;;;;;;8.93;1.85;;;;;;;;;;5065256;28;20044;-82
2023/05/18 14:04:18;;;;;;;10.50;2.05;;;;;;;;;;5059814;28;20123;-81
2023/05/18 14:06:44;;;;;;;6.18;1.33;;;;;;;;;;5043047;28;20306;-82
2023/05/18 14:09:10;;;;;;;13.13;2.70;;;;;;;;;;5054222;28;20898;-83
2023/05/18 14:11:37;;;;;;;7.18;1.73;;;;;;;;;;5076048;28;20123;-82
2023/05/18 14:14:03;;;;;;;8.57;2.10;;;;;;;;;;5078669;28;20052;-83
2023/05/18 14:16:29;;;;;;;7.90;1.70;;;;;;;;;;5077546;28;20471;-82
2023/05/18 14:18:55;;;;;;;6.70;1.70;;;;;;;;;;5081533;28;20086;-82
2023/05/18 14:21:21;;;;;;;6.43;1.65;;;;;;;;;;5085575;28;20039;-80
2023/05/18 14:23:47;;;;;;;4.88;1.55;;;;;;;;;;5077897;28;20036;-81
2023/05/18 14:26:13;;;;;;;11.15;1.90;;;;;;;;;;5083121;28;21715;-81
2023/05/18 14:28:39;;;;;;;10.13;2.00;;;;;;;;;;5078790;28;20051;-82
2023/05/18 14:31:06;;;;;;;12.30;1.95;;;;;;;;;;5057979;28;20066;-83
2023/05/18 14:33:32;;;;;;;9.80;1.77;;;;;;;;;;5061180;28;20572;-82
2023/05/18 14:35:58;;;;;;;6.68;1.60;;;;;;;;;;5062474;28;20101;-82
2023/05/18 14:38:25;;;;;;;6.47;1.90;;;;;;;;;;5054637;28;20048;-82
2023/05/18 14:40:52;;;;;;;8.82;1.63;;;;;;;;;;5051156;28;20056;-83